Archival Weather

Vermilion Rgnl

Danville, Illinois (KDNV)

Report from: Tuesday, March 26, 2024 12:35 AM CDT
Current time: Sunday, July 14, 2024 6:35 AM CDT

Current weather – Weather history – Daily summaries
Weather forecast

Temperature10.4°C (50.7°F)
Dew point9.1°C (48.4°F)
Winds 13 kts (6.7 m/s, 15 mph) South-Southeast (150°)
Visibility10 mi. (16.1 km)
Clouds Ceiling: Overcast 1,200 ft. (366 m)
Altimeter29.59 in.Hg (1002 mB)
Relative humidity92 %
Density altitude-3 ft. (-1 m)
Remarks Fully automated report
Automated weather observing station with precipitation discriminator
Flight conditions Marginal Visual Meteorological Conditions
Raw dataKDNV 260535Z AUTO 15013KT 10SM OVC012 10/09 A2959 RMK AO2 T01040091
An error has occurred. This application may no longer respond until reloaded. Reload 🗙